Flight Track Log - Related Links

Times and Time Zones

All times are in EDT time to prevent confusion due to time zone crossing. See the VTS30 flight status page for this flight to view local times or setup timezone preferences in your user account.

Time Position Orientation Groundspeed Altitude Reporting Facility
EDT Latitude Longitude Course Direction KTS MPH feet Rate Location/Type
Mon 02:23:31 PM 64.7333 -147.2333 247° West 160 184 3,800  Level Anchorage Center
Mon 02:24:32 PM 64.7167 -147.3333 249° West 150 173 5,000 1,200 Climbing Anchorage Center
Mon 02:25:31 PM 64.7000 -147.4167 245° Southwest 150 173 6,200 1,250 Climbing Anchorage Center
Mon 02:26:32 PM 64.6667 -147.5000 227° Southwest 160 184 7,500 1,190 Climbing Anchorage Center
Mon 02:27:00 PM 64.5147 -147.8007 243° Southwest  Level FlightAware Approximate
Mon 02:27:32 PM 64.6500 -147.5833 245° Southwest 160 184 8,600  Level Anchorage Center
Mon 02:28:00 PM 64.4911 -147.9161 247° West  Level FlightAware Approximate
Mon 02:28:32 PM 64.6167 -147.6667 227° Southwest 180 207 9,500  Level Anchorage Center
Mon 02:29:00 PM 64.4697 -148.0339 247° West  Level FlightAware Approximate
Mon 02:29:32 PM 64.5833 -147.7833 236° Southwest 210 242 9,500  Level Anchorage Center
Mon 02:30:32 PM 64.5500 -147.8833 232° Southwest 210 242 9,500  Level Anchorage Center
Mon 02:32:00 PM 64.4809 -147.9285 245° Southwest  Level Estimated
Mon 02:34:32 PM 64.3833 -148.2833 195° South 220 253 9,500  Level Anchorage Center
Mon 02:36:00 PM 64.3141 -148.3276 195° South  Level FlightAware Approximate
Mon 02:36:33 PM 64.2667 -148.3500 195° South 220 253 9,500  Level Anchorage Center
Mon 02:38:00 PM 64.1991 -148.4006 195° South  Level FlightAware Approximate
Mon 02:39:00 PM 64.2190 -148.3887 195° South  Level FlightAware Approximate
Mon 02:39:33 PM 64.1000 -148.4667 197° South 220 253 9,500  Level Anchorage Center
Mon 02:40:33 PM 64.0333 -148.5000 192° South 220 253 9,500  Level Anchorage Center
Mon 02:42:00 PM 63.9655 -148.5477 197° South  Level FlightAware Approximate
Mon 02:42:33 PM 63.9167 -148.5833 197° South 220 253 9,500  Level Anchorage Center
Mon 02:43:33 PM 63.8500 -148.6167 192° South 230 265 9,500  Level Anchorage Center
Mon 02:45:00 PM 63.8695 -148.6147 197° South  Level FlightAware Approximate
Mon 02:45:33 PM 63.7333 -148.6833 194° South 230 265 9,500  Level Anchorage Center
Mon 02:47:34 PM 63.6167 -148.7667 198° South 220 253 9,500  Level Anchorage Center
Mon 02:49:00 PM 63.5489 -148.8074 195° South  Level FlightAware Approximate
Mon 02:50:34 PM 63.4333 -148.8667 196° South 230 265 9,500  Level Anchorage Center
Mon 02:51:34 PM 63.3833 -148.9000 197° South 220 253 9,500  Level Anchorage Center
Mon 02:52:34 PM 63.3167 -148.9500 199° South 220 253 9,500  Level Anchorage Center
Mon 02:54:00 PM 63.2494 -148.9942 196° South  Level FlightAware Approximate
Mon 02:55:34 PM 63.1333 -149.0667 197° South 230 265 9,500  Level Anchorage Center
Mon 02:56:00 PM 63.2188 -149.0135 196° South  Level FlightAware Approximate
Mon 02:56:35 PM 63.0833 -149.1000 197° South 230 265 9,500  Level Anchorage Center
Mon 02:57:35 PM 63.0333 -149.1167 189° South 220 253 9,500  Level Anchorage Center
Mon 02:59:00 PM 62.9620 -149.1627 189° South  Level FlightAware Approximate
Mon 03:01:00 PM 62.9184 -149.1878 197° South  Level FlightAware Approximate
Mon 03:03:05 PM 62.6833 -149.3167 194° South 220 253 9,500  Level Anchorage Center
Mon 03:05:00 PM 62.5869 -149.3811 197° South  Level FlightAware Approximate
Mon 03:06:00 PM 62.6065 -149.3729 195° South  Level FlightAware Approximate
Mon 03:07:00 PM 62.5558 -149.4032 195° South  Level FlightAware Approximate
Mon 03:07:06 PM 62.4500 -149.4667 195° South 220 253 9,500  Level Anchorage Center
Mon 03:08:00 PM 62.5050 -149.4325 194° South  Level FlightAware Approximate
Mon 03:08:06 PM 62.4000 -149.5000 197° South 220 253 9,500  Level Anchorage Center
Mon 03:09:06 PM 62.3333 -149.5333 193° South 210 242 9,500  Level Anchorage Center
Mon 03:10:06 PM 62.2833 -149.5667 197° South 210 242 9,500  Level Anchorage Center
Mon 03:11:06 PM 62.2167 -149.6000 193° South 220 253 9,500 -250 Level Anchorage Center
Mon 03:12:00 PM 62.2466 -149.5779 195° South  Level FlightAware Approximate
Mon 03:12:06 PM 62.1667 -149.6333 197° South 220 253 9,000  Level Anchorage Center
Mon 03:13:00 PM 62.1957 -149.6062 195° South  Level FlightAware Approximate
Mon 03:13:07 PM 62.1167 -149.6667 197° South 220 253 8,700  Level Anchorage Center
Mon 03:15:07 PM 61.9833 -149.7333 193° South 220 253 8,000 -233 Descending Anchorage Center
Mon 03:16:07 PM 61.9167 -149.7667 193° South 220 253 8,000  Level Anchorage Center
Mon 03:18:00 PM 61.8191 -149.8194 194° South  Level FlightAware Approximate
Mon 03:25:00 PM 61.4547 -149.9601 178° South  Level FlightAware Approximate
Mon 03:26:00 PM 61.4013 -149.9556 178° South  Level FlightAware Approximate
Mon 03:27:00 PM 61.3479 -149.9512 178° South  Level FlightAware Approximate
Mon 03:28:00 PM 61.2945 -149.9500 180° South  Level FlightAware Approximate
Mon 03:29:00 PM 61.2410 -149.9500 180° South  Level FlightAware Approximate
Mon 03:30:00 PM 61.1876 -149.9500 180° South  Level FlightAware Approximate
Mon 03:31:00 PM 61.1859 -149.8961 36° Northeast  Level FlightAware Approximate
Mon 03:32:00 PM 61.2292 -149.8312 36° Northeast  Level FlightAware Approximate
Mon 03:33:00 PM 61.2500 -149.8000 36° Northeast  Level FlightAware Approximate
Mon 03:34:00 PM 61.2514 -149.8065 36° Northeast  Level Estimated
Mon 03:35:00 PM 61.2500 -149.8000 36° Northeast  Level FlightAware Approximate
Mon 03:36:00 PM 61.2514 -149.8065 36° Northeast  Level Estimated
Mon 03:37:00 PM 61.2500 -149.8000 36° Northeast  Level FlightAware Approximate
Mon 03:38:00 PM 61.2514 -149.8065 36° Northeast  Level Estimated
Mon 03:39:00 PM 61.2500 -149.8000 36° Northeast  Level FlightAware Approximate
Mon 03:40:00 PM 61.2514 -149.8065 36° Northeast  Level Estimated
Mon 03:41:00 PM 61.2500 -149.8000 36° Northeast  Level FlightAware Approximate
Mon 03:42:00 PM 61.2514 -149.8065 36° Northeast  Level Estimated
Mon 03:43:00 PM 61.2500 -149.8000 36° Northeast  Level FlightAware Approximate
Mon 03:44:00 PM 61.2514 -149.8065 36° Northeast  Level Estimated
Mon 03:45:00 PM 61.2500 -149.8000 36° Northeast  Level FlightAware Approximate
Mon 03:46:00 PM 61.2514 -149.8065 36° Northeast  Level Estimated
Mon 03:47:00 PM 61.2500 -149.8000 36° Northeast  Level FlightAware Approximate
Mon 03:48:00 PM 61.2514 -149.8065 36° Northeast  Level Estimated

Login

Don't have an account? Register now (free) for customized features, flight alerts, and more!